sensor_id;sensor_type;location;lat;lon;timestamp;P1;durP1;ratioP1;P2;durP2;ratioP2
24559;SDS011;12727;49.934;8.656;2023-12-28T00:00:15;5.78;;;4.32;;
24559;SDS011;12727;49.934;8.656;2023-12-28T00:02:40;8.18;;;4.75;;
24559;SDS011;12727;49.934;8.656;2023-12-28T00:05:06;8.57;;;5.03;;
24559;SDS011;12727;49.934;8.656;2023-12-28T00:07:32;8.70;;;4.90;;
24559;SDS011;12727;49.934;8.656;2023-12-28T00:09:57;6.97;;;4.90;;
24559;SDS011;12727;49.934;8.656;2023-12-28T00:12:23;6.25;;;4.05;;
24559;SDS011;12727;49.934;8.656;2023-12-28T00:14:48;8.10;;;4.18;;
24559;SDS011;12727;49.934;8.656;2023-12-28T00:17:14;8.48;;;4.28;;
24559;SDS011;12727;49.934;8.656;2023-12-28T00:19:39;6.68;;;3.78;;
24559;SDS011;12727;49.934;8.656;2023-12-28T00:22:05;7.97;;;4.05;;
24559;SDS011;12727;49.934;8.656;2023-12-28T00:24:30;5.45;;;3.42;;
24559;SDS011;12727;49.934;8.656;2023-12-28T00:26:56;5.40;;;3.50;;
24559;SDS011;12727;49.934;8.656;2023-12-28T00:29:21;6.53;;;3.50;;
24559;SDS011;12727;49.934;8.656;2023-12-28T00:31:47;5.68;;;3.60;;
24559;SDS011;12727;49.934;8.656;2023-12-28T00:34:13;6.30;;;3.88;;
24559;SDS011;12727;49.934;8.656;2023-12-28T00:36:38;6.75;;;3.83;;
24559;SDS011;12727;49.934;8.656;2023-12-28T00:39:04;5.97;;;3.40;;
24559;SDS011;12727;49.934;8.656;2023-12-28T00:41:29;5.20;;;3.40;;
24559;SDS011;12727;49.934;8.656;2023-12-28T00:43:55;7.45;;;3.67;;
24559;SDS011;12727;49.934;8.656;2023-12-28T00:46:20;5.75;;;3.58;;
24559;SDS011;12727;49.934;8.656;2023-12-28T00:48:46;5.70;;;3.85;;
24559;SDS011;12727;49.934;8.656;2023-12-28T00:51:11;6.50;;;3.72;;
24559;SDS011;12727;49.934;8.656;2023-12-28T00:53:37;6.50;;;3.80;;
24559;SDS011;12727;49.934;8.656;2023-12-28T00:56:02;6.35;;;3.65;;
24559;SDS011;12727;49.934;8.656;2023-12-28T00:58:28;5.97;;;3.60;;
24559;SDS011;12727;49.934;8.656;2023-12-28T01:00:54;4.97;;;3.40;;
24559;SDS011;12727;49.934;8.656;2023-12-28T01:03:21;6.45;;;3.50;;
24559;SDS011;12727;49.934;8.656;2023-12-28T01:05:48;7.35;;;3.70;;
24559;SDS011;12727;49.934;8.656;2023-12-28T01:08:15;7.00;;;3.70;;
24559;SDS011;12727;49.934;8.656;2023-12-28T01:10:42;6.03;;;3.53;;
24559;SDS011;12727;49.934;8.656;2023-12-28T01:13:08;5.88;;;3.40;;
24559;SDS011;12727;49.934;8.656;2023-12-28T01:15:33;5.28;;;3.95;;
24559;SDS011;12727;49.934;8.656;2023-12-28T01:17:59;7.80;;;4.10;;
24559;SDS011;12727;49.934;8.656;2023-12-28T01:20:24;6.88;;;3.40;;
24559;SDS011;12727;49.934;8.656;2023-12-28T01:22:50;6.35;;;3.50;;
24559;SDS011;12727;49.934;8.656;2023-12-28T01:25:15;5.68;;;3.10;;
24559;SDS011;12727;49.934;8.656;2023-12-28T01:27:41;7.18;;;3.65;;
24559;SDS011;12727;49.934;8.656;2023-12-28T01:30:07;7.25;;;3.00;;
24559;SDS011;12727;49.934;8.656;2023-12-28T01:32:33;6.30;;;2.83;;
24559;SDS011;12727;49.934;8.656;2023-12-28T01:34:58;6.25;;;3.42;;
24559;SDS011;12727;49.934;8.656;2023-12-28T01:37:24;8.15;;;3.30;;
24559;SDS011;12727;49.934;8.656;2023-12-28T01:39:49;6.45;;;3.17;;
24559;SDS011;12727;49.934;8.656;2023-12-28T01:42:15;5.45;;;3.00;;
24559;SDS011;12727;49.934;8.656;2023-12-28T01:44:41;4.78;;;3.00;;
24559;SDS011;12727;49.934;8.656;2023-12-28T01:47:06;5.10;;;2.85;;
24559;SDS011;12727;49.934;8.656;2023-12-28T01:49:32;5.20;;;3.33;;
24559;SDS011;12727;49.934;8.656;2023-12-28T01:52:00;5.28;;;3.30;;
24559;SDS011;12727;49.934;8.656;2023-12-28T01:54:27;5.82;;;3.25;;
24559;SDS011;12727;49.934;8.656;2023-12-28T01:56:53;4.90;;;3.03;;
24559;SDS011;12727;49.934;8.656;2023-12-28T01:59:19;6.03;;;3.17;;
24559;SDS011;12727;49.934;8.656;2023-12-28T02:01:45;5.10;;;3.10;;
24559;SDS011;12727;49.934;8.656;2023-12-28T02:04:11;5.70;;;3.70;;
24559;SDS011;12727;49.934;8.656;2023-12-28T02:06:37;4.93;;;3.25;;
24559;SDS011;12727;49.934;8.656;2023-12-28T02:09:02;7.10;;;3.33;;
24559;SDS011;12727;49.934;8.656;2023-12-28T02:11:28;4.82;;;3.33;;
24559;SDS011;12727;49.934;8.656;2023-12-28T02:13:54;5.88;;;3.42;;
24559;SDS011;12727;49.934;8.656;2023-12-28T02:16:28;6.70;;;3.22;;
24559;SDS011;12727;49.934;8.656;2023-12-28T02:18:57;5.68;;;3.70;;
24559;SDS011;12727;49.934;8.656;2023-12-28T02:21:28;4.78;;;2.92;;
24559;SDS011;12727;49.934;8.656;2023-12-28T02:23:56;5.38;;;3.42;;
24559;SDS011;12727;49.934;8.656;2023-12-28T02:26:21;5.85;;;3.40;;
24559;SDS011;12727;49.934;8.656;2023-12-28T02:28:47;4.57;;;3.10;;
24559;SDS011;12727;49.934;8.656;2023-12-28T02:31:14;5.25;;;3.10;;
24559;SDS011;12727;49.934;8.656;2023-12-28T02:33:50;4.72;;;3.20;;
24559;SDS011;12727;49.934;8.656;2023-12-28T02:36:29;8.13;;;3.75;;
24559;SDS011;12727;49.934;8.656;2023-12-28T02:38:55;5.97;;;3.45;;
24559;SDS011;12727;49.934;8.656;2023-12-28T02:41:23;4.85;;;3.28;;
24559;SDS011;12727;49.934;8.656;2023-12-28T02:43:50;6.45;;;3.20;;
24559;SDS011;12727;49.934;8.656;2023-12-28T02:46:15;5.22;;;3.13;;
24559;SDS011;12727;49.934;8.656;2023-12-28T02:48:41;6.97;;;3.28;;
24559;SDS011;12727;49.934;8.656;2023-12-28T02:51:07;4.80;;;2.83;;
24559;SDS011;12727;49.934;8.656;2023-12-28T02:53:32;7.65;;;3.40;;
24559;SDS011;12727;49.934;8.656;2023-12-28T02:55:58;5.50;;;3.58;;
24559;SDS011;12727;49.934;8.656;2023-12-28T02:58:23;5.00;;;3.15;;
24559;SDS011;12727;49.934;8.656;2023-12-28T03:00:49;4.78;;;3.08;;
24559;SDS011;12727;49.934;8.656;2023-12-28T03:03:14;6.43;;;3.83;;
24559;SDS011;12727;49.934;8.656;2023-12-28T03:05:40;4.43;;;3.10;;
24559;SDS011;12727;49.934;8.656;2023-12-28T03:08:06;8.23;;;3.58;;
24559;SDS011;12727;49.934;8.656;2023-12-28T03:10:32;5.35;;;3.45;;
24559;SDS011;12727;49.934;8.656;2023-12-28T03:12:57;6.80;;;3.22;;
24559;SDS011;12727;49.934;8.656;2023-12-28T03:15:23;6.13;;;3.05;;
24559;SDS011;12727;49.934;8.656;2023-12-28T03:17:48;4.63;;;3.10;;
24559;SDS011;12727;49.934;8.656;2023-12-28T03:20:14;5.20;;;3.10;;
24559;SDS011;12727;49.934;8.656;2023-12-28T03:22:40;8.10;;;3.58;;
24559;SDS011;12727;49.934;8.656;2023-12-28T03:25:06;5.63;;;3.03;;
24559;SDS011;12727;49.934;8.656;2023-12-28T03:27:31;4.70;;;3.03;;
24559;SDS011;12727;49.934;8.656;2023-12-28T03:29:57;6.68;;;3.65;;
24559;SDS011;12727;49.934;8.656;2023-12-28T03:32:23;6.28;;;3.20;;
24559;SDS011;12727;49.934;8.656;2023-12-28T03:34:48;5.32;;;3.42;;
24559;SDS011;12727;49.934;8.656;2023-12-28T03:37:14;5.38;;;3.15;;
24559;SDS011;12727;49.934;8.656;2023-12-28T03:39:39;4.38;;;3.05;;
24559;SDS011;12727;49.934;8.656;2023-12-28T03:42:05;5.57;;;3.25;;
24559;SDS011;12727;49.934;8.656;2023-12-28T03:44:31;6.43;;;3.15;;
24559;SDS011;12727;49.934;8.656;2023-12-28T03:46:56;6.45;;;3.03;;
24559;SDS011;12727;49.934;8.656;2023-12-28T03:49:22;7.93;;;3.33;;
24559;SDS011;12727;49.934;8.656;2023-12-28T03:51:49;5.15;;;3.30;;
24559;SDS011;12727;49.934;8.656;2023-12-28T03:54:18;5.45;;;2.85;;
24559;SDS011;12727;49.934;8.656;2023-12-28T03:56:45;5.65;;;3.10;;
24559;SDS011;12727;49.934;8.656;2023-12-28T03:59:11;4.90;;;2.92;;
24559;SDS011;12727;49.934;8.656;2023-12-28T04:01:37;6.10;;;3.03;;
24559;SDS011;12727;49.934;8.656;2023-12-28T04:04:03;5.22;;;3.05;;
24559;SDS011;12727;49.934;8.656;2023-12-28T04:06:28;5.35;;;2.85;;
24559;SDS011;12727;49.934;8.656;2023-12-28T04:08:54;6.03;;;2.83;;
24559;SDS011;12727;49.934;8.656;2023-12-28T04:11:20;5.00;;;2.55;;
24559;SDS011;12727;49.934;8.656;2023-12-28T04:13:45;5.80;;;2.80;;
24559;SDS011;12727;49.934;8.656;2023-12-28T04:16:14;4.90;;;2.78;;
24559;SDS011;12727;49.934;8.656;2023-12-28T04:18:41;7.00;;;2.97;;
24559;SDS011;12727;49.934;8.656;2023-12-28T04:21:13;4.28;;;3.00;;
24559;SDS011;12727;49.934;8.656;2023-12-28T04:23:39;4.03;;;2.85;;
24559;SDS011;12727;49.934;8.656;2023-12-28T04:26:05;4.38;;;3.00;;
24559;SDS011;12727;49.934;8.656;2023-12-28T04:28:31;4.47;;;2.75;;
24559;SDS011;12727;49.934;8.656;2023-12-28T04:31:01;3.25;;;2.33;;
24559;SDS011;12727;49.934;8.656;2023-12-28T04:33:31;5.90;;;3.15;;
24559;SDS011;12727;49.934;8.656;2023-12-28T04:35:57;5.88;;;2.78;;
24559;SDS011;12727;49.934;8.656;2023-12-28T04:38:28;3.47;;;2.70;;
24559;SDS011;12727;49.934;8.656;2023-12-28T04:40:53;3.40;;;2.20;;
24559;SDS011;12727;49.934;8.656;2023-12-28T04:43:19;5.15;;;2.78;;
24559;SDS011;12727;49.934;8.656;2023-12-28T04:45:44;4.45;;;2.70;;
24559;SDS011;12727;49.934;8.656;2023-12-28T04:48:10;5.53;;;2.65;;
24559;SDS011;12727;49.934;8.656;2023-12-28T04:50:35;3.90;;;2.47;;
24559;SDS011;12727;49.934;8.656;2023-12-28T04:53:01;4.15;;;2.65;;
24559;SDS011;12727;49.934;8.656;2023-12-28T04:55:27;4.75;;;2.65;;
24559;SDS011;12727;49.934;8.656;2023-12-28T04:57:53;4.30;;;2.20;;
24559;SDS011;12727;49.934;8.656;2023-12-28T05:00:19;5.82;;;2.53;;
24559;SDS011;12727;49.934;8.656;2023-12-28T05:02:44;3.67;;;2.50;;
24559;SDS011;12727;49.934;8.656;2023-12-28T05:05:11;4.07;;;2.42;;
24559;SDS011;12727;49.934;8.656;2023-12-28T05:07:37;4.10;;;2.20;;
24559;SDS011;12727;49.934;8.656;2023-12-28T05:10:03;4.07;;;2.53;;
24559;SDS011;12727;49.934;8.656;2023-12-28T05:12:29;4.95;;;2.30;;
24559;SDS011;12727;49.934;8.656;2023-12-28T05:14:55;5.30;;;2.53;;
24559;SDS011;12727;49.934;8.656;2023-12-28T05:17:20;3.90;;;2.38;;
24559;SDS011;12727;49.934;8.656;2023-12-28T05:19:46;4.18;;;2.10;;
24559;SDS011;12727;49.934;8.656;2023-12-28T05:22:12;5.20;;;2.40;;
24559;SDS011;12727;49.934;8.656;2023-12-28T05:24:37;3.25;;;2.30;;
24559;SDS011;12727;49.934;8.656;2023-12-28T05:27:03;4.28;;;2.30;;
24559;SDS011;12727;49.934;8.656;2023-12-28T05:29:29;5.72;;;2.47;;
24559;SDS011;12727;49.934;8.656;2023-12-28T05:31:54;3.95;;;2.35;;
24559;SDS011;12727;49.934;8.656;2023-12-28T05:34:20;4.38;;;2.40;;
24559;SDS011;12727;49.934;8.656;2023-12-28T05:36:45;4.18;;;2.47;;
24559;SDS011;12727;49.934;8.656;2023-12-28T05:39:11;3.58;;;2.25;;
24559;SDS011;12727;49.934;8.656;2023-12-28T05:41:38;3.33;;;2.40;;
24559;SDS011;12727;49.934;8.656;2023-12-28T05:44:05;4.95;;;2.53;;
24559;SDS011;12727;49.934;8.656;2023-12-28T05:46:31;4.43;;;2.40;;
24559;SDS011;12727;49.934;8.656;2023-12-28T05:48:56;4.93;;;2.30;;
24559;SDS011;12727;49.934;8.656;2023-12-28T05:51:23;3.30;;;2.20;;
24559;SDS011;12727;49.934;8.656;2023-12-28T05:53:49;4.70;;;2.38;;
24559;SDS011;12727;49.934;8.656;2023-12-28T05:56:14;4.88;;;2.60;;
24559;SDS011;12727;49.934;8.656;2023-12-28T05:58:40;5.72;;;2.40;;
24559;SDS011;12727;49.934;8.656;2023-12-28T06:01:06;4.93;;;2.55;;
24559;SDS011;12727;49.934;8.656;2023-12-28T06:03:32;4.57;;;1.92;;
24559;SDS011;12727;49.934;8.656;2023-12-28T06:05:57;2.80;;;2.30;;
24559;SDS011;12727;49.934;8.656;2023-12-28T06:08:23;6.05;;;2.30;;
24559;SDS011;12727;49.934;8.656;2023-12-28T06:10:49;4.07;;;2.40;;
24559;SDS011;12727;49.934;8.656;2023-12-28T06:13:14;4.03;;;2.13;;
24559;SDS011;12727;49.934;8.656;2023-12-28T06:15:40;2.97;;;2.10;;
24559;SDS011;12727;49.934;8.656;2023-12-28T06:18:06;3.55;;;2.25;;
24559;SDS011;12727;49.934;8.656;2023-12-28T06:20:31;4.10;;;2.20;;
24559;SDS011;12727;49.934;8.656;2023-12-28T06:22:57;3.15;;;1.90;;
24559;SDS011;12727;49.934;8.656;2023-12-28T06:25:22;3.30;;;1.92;;
24559;SDS011;12727;49.934;8.656;2023-12-28T06:27:48;3.35;;;1.92;;
24559;SDS011;12727;49.934;8.656;2023-12-28T06:30:13;4.60;;;1.85;;
24559;SDS011;12727;49.934;8.656;2023-12-28T06:32:39;3.10;;;1.88;;
24559;SDS011;12727;49.934;8.656;2023-12-28T06:35:05;4.07;;;2.00;;
24559;SDS011;12727;49.934;8.656;2023-12-28T06:37:31;2.83;;;1.98;;
24559;SDS011;12727;49.934;8.656;2023-12-28T06:39:56;4.80;;;2.00;;
24559;SDS011;12727;49.934;8.656;2023-12-28T06:42:22;2.97;;;2.15;;
24559;SDS011;12727;49.934;8.656;2023-12-28T06:44:47;4.75;;;2.40;;
24559;SDS011;12727;49.934;8.656;2023-12-28T06:47:13;5.28;;;2.38;;
24559;SDS011;12727;49.934;8.656;2023-12-28T06:49:39;2.67;;;1.92;;
24559;SDS011;12727;49.934;8.656;2023-12-28T06:52:04;3.72;;;1.90;;
24559;SDS011;12727;49.934;8.656;2023-12-28T06:54:30;5.18;;;2.35;;
24559;SDS011;12727;49.934;8.656;2023-12-28T06:56:55;2.85;;;2.08;;
24559;SDS011;12727;49.934;8.656;2023-12-28T06:59:21;4.72;;;2.50;;
24559;SDS011;12727;49.934;8.656;2023-12-28T07:01:46;3.03;;;2.10;;
24559;SDS011;12727;49.934;8.656;2023-12-28T07:04:13;4.00;;;2.20;;
24559;SDS011;12727;49.934;8.656;2023-12-28T07:06:39;3.67;;;2.10;;
24559;SDS011;12727;49.934;8.656;2023-12-28T07:09:04;3.25;;;2.10;;
24559;SDS011;12727;49.934;8.656;2023-12-28T07:11:30;3.17;;;2.20;;
24559;SDS011;12727;49.934;8.656;2023-12-28T07:13:56;5.18;;;2.17;;
24559;SDS011;12727;49.934;8.656;2023-12-28T07:16:21;4.78;;;2.15;;
24559;SDS011;12727;49.934;8.656;2023-12-28T07:18:47;3.38;;;2.17;;
24559;SDS011;12727;49.934;8.656;2023-12-28T07:21:13;3.72;;;2.53;;
24559;SDS011;12727;49.934;8.656;2023-12-28T07:23:38;2.63;;;2.10;;
24559;SDS011;12727;49.934;8.656;2023-12-28T07:26:04;3.97;;;2.30;;
24559;SDS011;12727;49.934;8.656;2023-12-28T07:28:30;3.53;;;2.00;;
24559;SDS011;12727;49.934;8.656;2023-12-28T07:30:56;5.55;;;2.53;;
24559;SDS011;12727;49.934;8.656;2023-12-28T07:33:21;4.60;;;2.25;;
24559;SDS011;12727;49.934;8.656;2023-12-28T07:35:47;5.35;;;2.47;;
24559;SDS011;12727;49.934;8.656;2023-12-28T07:38:13;4.38;;;2.60;;
24559;SDS011;12727;49.934;8.656;2023-12-28T07:40:39;5.45;;;2.58;;
24559;SDS011;12727;49.934;8.656;2023-12-28T07:43:04;3.83;;;2.40;;
24559;SDS011;12727;49.934;8.656;2023-12-28T07:45:30;4.15;;;2.45;;
24559;SDS011;12727;49.934;8.656;2023-12-28T07:47:57;5.43;;;2.67;;
24559;SDS011;12727;49.934;8.656;2023-12-28T07:50:24;3.78;;;2.33;;
24559;SDS011;12727;49.934;8.656;2023-12-28T07:52:49;4.93;;;2.53;;
24559;SDS011;12727;49.934;8.656;2023-12-28T07:55:15;3.88;;;2.22;;
24559;SDS011;12727;49.934;8.656;2023-12-28T07:57:41;7.32;;;2.28;;
24559;SDS011;12727;49.934;8.656;2023-12-28T08:00:07;5.10;;;2.72;;
24559;SDS011;12727;49.934;8.656;2023-12-28T08:02:35;5.43;;;2.33;;
24559;SDS011;12727;49.934;8.656;2023-12-28T08:05:01;4.63;;;2.25;;
24559;SDS011;12727;49.934;8.656;2023-12-28T08:07:27;3.97;;;2.47;;
24559;SDS011;12727;49.934;8.656;2023-12-28T08:09:53;3.88;;;2.65;;
24559;SDS011;12727;49.934;8.656;2023-12-28T08:12:18;6.63;;;2.42;;
24559;SDS011;12727;49.934;8.656;2023-12-28T08:14:46;5.15;;;2.38;;
24559;SDS011;12727;49.934;8.656;2023-12-28T08:17:11;5.95;;;2.78;;
24559;SDS011;12727;49.934;8.656;2023-12-28T08:19:37;4.35;;;2.47;;
24559;SDS011;12727;49.934;8.656;2023-12-28T08:22:03;5.07;;;2.85;;
24559;SDS011;12727;49.934;8.656;2023-12-28T08:24:28;3.22;;;2.60;;
24559;SDS011;12727;49.934;8.656;2023-12-28T08:26:54;5.10;;;2.55;;
24559;SDS011;12727;49.934;8.656;2023-12-28T08:29:24;4.07;;;2.17;;
24559;SDS011;12727;49.934;8.656;2023-12-28T08:31:49;5.93;;;2.63;;
24559;SDS011;12727;49.934;8.656;2023-12-28T08:34:15;4.80;;;2.35;;
24559;SDS011;12727;49.934;8.656;2023-12-28T08:36:41;3.50;;;2.47;;
24559;SDS011;12727;49.934;8.656;2023-12-28T08:39:06;5.22;;;2.53;;
24559;SDS011;12727;49.934;8.656;2023-12-28T08:41:32;4.95;;;2.63;;
24559;SDS011;12727;49.934;8.656;2023-12-28T08:43:58;4.43;;;2.35;;
24559;SDS011;12727;49.934;8.656;2023-12-28T08:46:23;3.22;;;2.08;;
24559;SDS011;12727;49.934;8.656;2023-12-28T08:48:52;6.03;;;2.30;;
24559;SDS011;12727;49.934;8.656;2023-12-28T08:51:17;3.88;;;2.33;;
24559;SDS011;12727;49.934;8.656;2023-12-28T08:53:43;6.53;;;2.40;;
24559;SDS011;12727;49.934;8.656;2023-12-28T08:56:27;4.82;;;2.75;;
24559;SDS011;12727;49.934;8.656;2023-12-28T08:58:52;7.78;;;2.60;;
24559;SDS011;12727;49.934;8.656;2023-12-28T09:01:19;4.72;;;2.72;;
24559;SDS011;12727;49.934;8.656;2023-12-28T09:03:49;4.63;;;2.53;;
24559;SDS011;12727;49.934;8.656;2023-12-28T09:06:16;4.93;;;2.78;;
24559;SDS011;12727;49.934;8.656;2023-12-28T09:08:44;4.30;;;2.22;;
24559;SDS011;12727;49.934;8.656;2023-12-28T09:11:12;3.85;;;2.42;;
24559;SDS011;12727;49.934;8.656;2023-12-28T09:13:39;2.85;;;2.35;;
24559;SDS011;12727;49.934;8.656;2023-12-28T09:16:05;4.20;;;2.20;;
24559;SDS011;12727;49.934;8.656;2023-12-28T09:18:32;5.05;;;2.40;;
24559;SDS011;12727;49.934;8.656;2023-12-28T09:20:58;2.95;;;2.00;;
24559;SDS011;12727;49.934;8.656;2023-12-28T09:23:23;4.28;;;2.50;;
24559;SDS011;12727;49.934;8.656;2023-12-28T09:25:49;4.15;;;2.30;;
24559;SDS011;12727;49.934;8.656;2023-12-28T09:28:14;3.75;;;2.10;;
24559;SDS011;12727;49.934;8.656;2023-12-28T09:30:40;4.25;;;2.13;;
24559;SDS011;12727;49.934;8.656;2023-12-28T09:33:06;4.25;;;2.38;;
24559;SDS011;12727;49.934;8.656;2023-12-28T09:35:31;4.72;;;2.58;;
24559;SDS011;12727;49.934;8.656;2023-12-28T09:37:57;2.85;;;2.00;;
24559;SDS011;12727;49.934;8.656;2023-12-28T09:40:23;3.97;;;2.15;;
24559;SDS011;12727;49.934;8.656;2023-12-28T09:45:47;4.43;;;2.13;;
24559;SDS011;12727;49.934;8.656;2023-12-28T09:48:16;4.22;;;2.20;;
24559;SDS011;12727;49.934;8.656;2023-12-28T09:50:44;4.97;;;1.83;;
24559;SDS011;12727;49.934;8.656;2023-12-28T09:53:22;3.20;;;1.75;;
24559;SDS011;12727;49.934;8.656;2023-12-28T09:55:51;3.28;;;1.63;;
24559;SDS011;12727;49.934;8.656;2023-12-28T09:58:18;3.17;;;1.80;;
24559;SDS011;12727;49.934;8.656;2023-12-28T10:00:44;3.67;;;1.88;;
24559;SDS011;12727;49.934;8.656;2023-12-28T10:03:14;7.55;;;2.08;;
24559;SDS011;12727;49.934;8.656;2023-12-28T10:05:41;3.67;;;1.85;;
24559;SDS011;12727;49.934;8.656;2023-12-28T10:08:08;3.67;;;2.00;;
24559;SDS011;12727;49.934;8.656;2023-12-28T10:10:34;3.22;;;1.70;;
24559;SDS011;12727;49.934;8.656;2023-12-28T10:12:59;3.55;;;1.73;;
24559;SDS011;12727;49.934;8.656;2023-12-28T10:15:25;3.90;;;1.70;;
24559;SDS011;12727;49.934;8.656;2023-12-28T10:17:54;4.20;;;1.95;;
24559;SDS011;12727;49.934;8.656;2023-12-28T10:20:19;3.53;;;1.45;;
24559;SDS011;12727;49.934;8.656;2023-12-28T10:22:45;5.90;;;1.60;;
24559;SDS011;12727;49.934;8.656;2023-12-28T10:25:12;3.83;;;1.85;;
24559;SDS011;12727;49.934;8.656;2023-12-28T10:27:41;4.30;;;1.63;;
24559;SDS011;12727;49.934;8.656;2023-12-28T10:30:07;2.97;;;1.50;;
24559;SDS011;12727;49.934;8.656;2023-12-28T10:32:34;4.50;;;1.90;;
24559;SDS011;12727;49.934;8.656;2023-12-28T10:34:59;4.30;;;1.98;;
24559;SDS011;12727;49.934;8.656;2023-12-28T10:37:26;3.53;;;1.95;;
24559;SDS011;12727;49.934;8.656;2023-12-28T10:39:53;3.83;;;1.80;;
24559;SDS011;12727;49.934;8.656;2023-12-28T10:42:29;4.43;;;1.83;;
24559;SDS011;12727;49.934;8.656;2023-12-28T10:45:04;5.95;;;2.00;;
24559;SDS011;12727;49.934;8.656;2023-12-28T10:47:31;4.88;;;2.42;;
24559;SDS011;12727;49.934;8.656;2023-12-28T10:50:04;2.53;;;1.67;;
24559;SDS011;12727;49.934;8.656;2023-12-28T10:52:32;4.13;;;2.10;;
24559;SDS011;12727;49.934;8.656;2023-12-28T10:57:59;3.75;;;1.58;;
24559;SDS011;12727;49.934;8.656;2023-12-28T11:00:52;4.90;;;1.90;;
24559;SDS011;12727;49.934;8.656;2023-12-28T11:03:23;5.05;;;2.15;;
24559;SDS011;12727;49.934;8.656;2023-12-28T11:05:53;4.75;;;1.98;;
24559;SDS011;12727;49.934;8.656;2023-12-28T11:08:20;7.13;;;2.20;;
24559;SDS011;12727;49.934;8.656;2023-12-28T11:10:47;5.57;;;2.22;;
24559;SDS011;12727;49.934;8.656;2023-12-28T11:13:15;3.47;;;1.98;;
24559;SDS011;12727;49.934;8.656;2023-12-28T11:15:43;5.00;;;2.15;;
24559;SDS011;12727;49.934;8.656;2023-12-28T11:18:09;6.38;;;2.20;;
24559;SDS011;12727;49.934;8.656;2023-12-28T11:20:36;3.70;;;2.13;;
24559;SDS011;12727;49.934;8.656;2023-12-28T11:23:03;5.85;;;2.40;;
24559;SDS011;12727;49.934;8.656;2023-12-28T11:25:33;4.85;;;2.10;;
24559;SDS011;12727;49.934;8.656;2023-12-28T11:27:59;4.10;;;1.95;;
24559;SDS011;12727;49.934;8.656;2023-12-28T11:30:33;6.82;;;2.15;;
24559;SDS011;12727;49.934;8.656;2023-12-28T11:32:59;4.95;;;2.25;;
24559;SDS011;12727;49.934;8.656;2023-12-28T11:35:31;3.85;;;2.30;;
24559;SDS011;12727;49.934;8.656;2023-12-28T11:38:04;5.13;;;2.13;;
24559;SDS011;12727;49.934;8.656;2023-12-28T11:40:39;4.07;;;2.40;;
24559;SDS011;12727;49.934;8.656;2023-12-28T11:43:18;3.05;;;2.03;;
24559;SDS011;12727;49.934;8.656;2023-12-28T11:45:48;6.88;;;3.90;;
24559;SDS011;12727;49.934;8.656;2023-12-28T11:48:22;4.85;;;2.20;;
24559;SDS011;12727;49.934;8.656;2023-12-28T11:50:49;5.18;;;2.47;;
24559;SDS011;12727;49.934;8.656;2023-12-28T11:53:15;3.22;;;1.77;;
24559;SDS011;12727;49.934;8.656;2023-12-28T11:55:41;6.22;;;2.15;;
24559;SDS011;12727;49.934;8.656;2023-12-28T11:58:07;4.90;;;2.08;;
24559;SDS011;12727;49.934;8.656;2023-12-28T12:00:32;5.15;;;2.38;;
24559;SDS011;12727;49.934;8.656;2023-12-28T12:02:58;4.28;;;1.95;;
24559;SDS011;12727;49.934;8.656;2023-12-28T12:05:23;5.22;;;2.20;;
24559;SDS011;12727;49.934;8.656;2023-12-28T12:07:49;5.85;;;2.10;;
24559;SDS011;12727;49.934;8.656;2023-12-28T12:10:15;4.65;;;2.42;;
24559;SDS011;12727;49.934;8.656;2023-12-28T12:12:41;3.60;;;2.17;;
24559;SDS011;12727;49.934;8.656;2023-12-28T12:15:07;6.03;;;2.25;;
24559;SDS011;12727;49.934;8.656;2023-12-28T12:17:33;4.47;;;2.30;;
24559;SDS011;12727;49.934;8.656;2023-12-28T12:19:59;3.72;;;2.28;;
24559;SDS011;12727;49.934;8.656;2023-12-28T12:22:27;2.90;;;1.98;;
24559;SDS011;12727;49.934;8.656;2023-12-28T12:24:52;8.27;;;2.40;;
24559;SDS011;12727;49.934;8.656;2023-12-28T12:27:20;3.58;;;1.95;;
24559;SDS011;12727;49.934;8.656;2023-12-28T12:29:45;4.60;;;2.00;;
24559;SDS011;12727;49.934;8.656;2023-12-28T12:32:11;5.28;;;2.13;;
24559;SDS011;12727;49.934;8.656;2023-12-28T12:34:37;5.93;;;2.00;;
24559;SDS011;12727;49.934;8.656;2023-12-28T12:37:04;3.90;;;2.00;;
24559;SDS011;12727;49.934;8.656;2023-12-28T12:39:30;3.08;;;1.88;;
24559;SDS011;12727;49.934;8.656;2023-12-28T12:41:57;7.30;;;2.33;;
24559;SDS011;12727;49.934;8.656;2023-12-28T12:44:23;4.18;;;2.40;;
24559;SDS011;12727;49.934;8.656;2023-12-28T12:46:55;6.05;;;2.50;;
24559;SDS011;12727;49.934;8.656;2023-12-28T12:49:22;5.93;;;2.10;;
24559;SDS011;12727;49.934;8.656;2023-12-28T12:51:49;3.38;;;2.30;;
24559;SDS011;12727;49.934;8.656;2023-12-28T12:54:16;5.90;;;2.35;;
24559;SDS011;12727;49.934;8.656;2023-12-28T12:56:43;4.05;;;2.15;;
24559;SDS011;12727;49.934;8.656;2023-12-28T12:59:10;4.50;;;2.15;;
24559;SDS011;12727;49.934;8.656;2023-12-28T13:01:41;5.80;;;2.50;;
24559;SDS011;12727;49.934;8.656;2023-12-28T13:04:07;8.15;;;2.58;;
24559;SDS011;12727;49.934;8.656;2023-12-28T13:06:33;3.25;;;1.92;;
24559;SDS011;12727;49.934;8.656;2023-12-28T13:08:59;4.00;;;1.92;;
24559;SDS011;12727;49.934;8.656;2023-12-28T13:11:25;6.25;;;2.33;;
24559;SDS011;12727;49.934;8.656;2023-12-28T13:13:51;5.47;;;2.20;;
24559;SDS011;12727;49.934;8.656;2023-12-28T13:16:17;4.88;;;2.40;;
24559;SDS011;12727;49.934;8.656;2023-12-28T13:18:43;4.03;;;2.20;;
24559;SDS011;12727;49.934;8.656;2023-12-28T13:21:09;5.05;;;2.63;;
24559;SDS011;12727;49.934;8.656;2023-12-28T13:23:34;5.53;;;2.90;;
24559;SDS011;12727;49.934;8.656;2023-12-28T13:26:00;6.60;;;3.03;;
24559;SDS011;12727;49.934;8.656;2023-12-28T13:28:25;8.30;;;3.08;;
24559;SDS011;12727;49.934;8.656;2023-12-28T13:30:51;5.47;;;2.97;;
24559;SDS011;12727;49.934;8.656;2023-12-28T13:33:20;6.50;;;3.10;;
24559;SDS011;12727;49.934;8.656;2023-12-28T13:35:46;5.97;;;3.05;;
24559;SDS011;12727;49.934;8.656;2023-12-28T13:38:12;5.65;;;3.08;;
24559;SDS011;12727;49.934;8.656;2023-12-28T13:40:38;4.57;;;3.15;;
24559;SDS011;12727;49.934;8.656;2023-12-28T13:43:03;4.78;;;3.30;;
24559;SDS011;12727;49.934;8.656;2023-12-28T13:45:29;6.20;;;3.30;;
24559;SDS011;12727;49.934;8.656;2023-12-28T13:47:54;5.63;;;2.90;;
24559;SDS011;12727;49.934;8.656;2023-12-28T13:50:20;5.72;;;3.33;;
24559;SDS011;12727;49.934;8.656;2023-12-28T13:52:46;7.75;;;3.42;;
24559;SDS011;12727;49.934;8.656;2023-12-28T13:55:12;5.72;;;4.00;;
24559;SDS011;12727;49.934;8.656;2023-12-28T13:57:38;5.70;;;3.78;;
24559;SDS011;12727;49.934;8.656;2023-12-28T14:00:04;7.47;;;4.40;;
24559;SDS011;12727;49.934;8.656;2023-12-28T14:02:30;7.20;;;4.20;;
24559;SDS011;12727;49.934;8.656;2023-12-28T14:04:56;5.45;;;4.22;;
24559;SDS011;12727;49.934;8.656;2023-12-28T14:07:22;5.72;;;4.65;;
24559;SDS011;12727;49.934;8.656;2023-12-28T14:09:48;6.40;;;4.38;;
24559;SDS011;12727;49.934;8.656;2023-12-28T14:12:14;8.27;;;4.70;;
24559;SDS011;12727;49.934;8.656;2023-12-28T14:14:39;6.78;;;4.95;;
24559;SDS011;12727;49.934;8.656;2023-12-28T14:17:05;5.38;;;4.57;;
24559;SDS011;12727;49.934;8.656;2023-12-28T14:19:31;6.30;;;4.25;;
24559;SDS011;12727;49.934;8.656;2023-12-28T14:21:57;5.43;;;4.88;;
24559;SDS011;12727;49.934;8.656;2023-12-28T14:24:23;5.28;;;4.40;;
24559;SDS011;12727;49.934;8.656;2023-12-28T14:26:50;5.85;;;4.32;;
24559;SDS011;12727;49.934;8.656;2023-12-28T14:29:18;5.97;;;4.60;;
24559;SDS011;12727;49.934;8.656;2023-12-28T14:31:45;5.75;;;4.53;;
24559;SDS011;12727;49.934;8.656;2023-12-28T14:34:12;6.80;;;4.78;;
24559;SDS011;12727;49.934;8.656;2023-12-28T14:36:38;5.45;;;4.22;;
24559;SDS011;12727;49.934;8.656;2023-12-28T14:39:04;8.70;;;4.75;;
24559;SDS011;12727;49.934;8.656;2023-12-28T14:41:32;4.65;;;3.95;;
24559;SDS011;12727;49.934;8.656;2023-12-28T14:43:58;6.85;;;4.70;;
24559;SDS011;12727;49.934;8.656;2023-12-28T14:46:24;5.70;;;4.47;;
24559;SDS011;12727;49.934;8.656;2023-12-28T14:48:51;6.00;;;4.55;;